createdAt,value
2019-05-11T00:01:44.398Z,12.30
2019-05-11T00:04:13.767Z,12.30
2019-05-11T00:06:43.139Z,12.30
2019-05-11T00:09:12.546Z,12.40
2019-05-11T00:11:41.896Z,12.40
2019-05-11T00:14:11.266Z,12.40
2019-05-11T00:16:40.626Z,12.60
2019-05-11T00:19:09.992Z,12.50
2019-05-11T00:21:39.339Z,13.00
2019-05-11T00:24:08.724Z,13.00
2019-05-11T00:26:38.139Z,12.60
2019-05-11T00:29:07.507Z,12.50
2019-05-11T00:31:36.865Z,12.90
2019-05-11T00:34:06.239Z,12.70
2019-05-11T00:36:35.603Z,12.50
2019-05-11T00:39:07.255Z,12.70
2019-05-11T00:41:36.610Z,13.00
2019-05-11T00:44:06.040Z,13.10
2019-05-11T00:46:35.459Z,12.90
2019-05-11T00:49:04.904Z,12.60
2019-05-11T00:51:34.251Z,12.30
2019-05-11T00:54:03.623Z,12.30
2019-05-11T00:56:33.036Z,12.70
2019-05-11T00:59:02.476Z,12.60
2019-05-11T01:01:31.838Z,12.60
2019-05-11T01:04:01.241Z,12.80
2019-05-11T01:06:30.592Z,12.70
2019-05-11T01:08:59.932Z,12.40
2019-05-11T01:11:29.283Z,12.60
2019-05-11T01:13:58.653Z,12.70
2019-05-11T01:16:27.998Z,12.40
2019-05-11T01:18:57.371Z,12.10
2019-05-11T01:21:26.723Z,11.90
2019-05-11T01:23:56.094Z,11.90
2019-05-11T01:26:25.443Z,12.00
2019-05-11T01:28:54.812Z,12.00
2019-05-11T01:31:24.239Z,11.90
2019-05-11T01:33:53.582Z,11.80
2019-05-11T01:36:22.955Z,12.10
2019-05-11T01:38:52.302Z,12.10
2019-05-11T01:41:21.672Z,11.90
2019-05-11T01:43:51.020Z,11.80
2019-05-11T01:46:20.390Z,11.80
2019-05-11T01:48:49.733Z,11.80
2019-05-11T01:51:19.122Z,12.00
2019-05-11T01:53:48.431Z,12.20
2019-05-11T01:56:17.808Z,12.30
2019-05-11T01:58:47.155Z,12.20
2019-05-11T02:01:16.480Z,12.10
2019-05-11T02:03:45.793Z,12.00
2019-05-11T02:06:15.193Z,12.00
2019-05-11T02:08:44.503Z,12.10
2019-05-11T02:11:16.189Z,12.10
2019-05-11T02:13:44.872Z,12.20
2019-05-11T02:16:14.204Z,12.40
2019-05-11T02:18:43.516Z,12.30
2019-05-11T02:21:12.923Z,12.50
2019-05-11T02:23:42.348Z,12.50
2019-05-11T02:26:11.721Z,12.30
2019-05-11T02:28:41.075Z,12.20
2019-05-11T02:31:10.448Z,12.20
2019-05-11T02:33:39.954Z,12.20
2019-05-11T02:36:09.282Z,12.30
2019-05-11T02:38:38.597Z,12.40
2019-05-11T02:41:08.106Z,12.80
2019-05-11T02:43:37.418Z,12.70
2019-05-11T02:46:06.754Z,12.60
2019-05-11T02:48:36.057Z,12.50
2019-05-11T02:51:05.462Z,12.50
2019-05-11T02:53:35.818Z,12.50
2019-05-11T02:56:05.152Z,12.40
2019-05-11T02:58:34.457Z,12.40
2019-05-11T03:01:03.795Z,12.50
2019-05-11T03:03:33.103Z,12.50
2019-05-11T03:06:02.451Z,12.50
2019-05-11T03:08:31.757Z,12.50
2019-05-11T03:11:01.089Z,12.40
2019-05-11T03:13:30.409Z,12.60
2019-05-11T03:15:59.732Z,12.50
2019-05-11T03:18:29.285Z,12.40
2019-05-11T03:20:58.618Z,12.40
2019-05-11T03:23:27.933Z,12.60
2019-05-11T03:25:57.265Z,12.60
2019-05-11T03:28:26.590Z,12.70
2019-05-11T03:30:55.921Z,12.80
2019-05-11T03:33:25.301Z,12.80
2019-05-11T03:35:54.632Z,13.00
2019-05-11T03:38:24.018Z,13.10
2019-05-11T03:40:53.353Z,12.90
2019-05-11T03:43:22.660Z,13.10
2019-05-11T03:45:52.111Z,13.10
2019-05-11T03:48:21.380Z,13.10
2019-05-11T03:50:50.695Z,13.10
2019-05-11T03:53:20.025Z,13.20
2019-05-11T03:55:49.334Z,13.20
2019-05-11T03:58:18.669Z,13.30
2019-05-11T04:00:47.981Z,13.20
2019-05-11T04:03:17.316Z,13.20
2019-05-11T04:05:46.630Z,13.30
2019-05-11T04:08:15.960Z,13.30
2019-05-11T04:10:45.267Z,13.30
2019-05-11T04:13:14.673Z,13.30
2019-05-11T04:15:43.978Z,13.40
2019-05-11T04:18:13.324Z,13.40
2019-05-11T04:20:42.623Z,13.30
2019-05-11T04:23:11.951Z,13.40
2019-05-11T04:25:41.333Z,13.40
2019-05-11T04:28:10.667Z,13.40
2019-05-11T04:30:39.989Z,13.50
2019-05-11T04:33:09.323Z,13.50
2019-05-11T04:35:38.631Z,13.50
2019-05-11T04:38:07.958Z,13.50
2019-05-11T04:40:37.274Z,13.60
2019-05-11T04:43:06.599Z,13.60
2019-05-11T04:45:35.919Z,13.60
2019-05-11T04:48:05.610Z,13.60
2019-05-11T04:50:34.919Z,13.60
2019-05-11T04:53:04.251Z,13.60
2019-05-11T04:55:33.632Z,13.70
2019-05-11T04:58:02.972Z,13.70
2019-05-11T05:00:32.355Z,13.70
2019-05-11T05:03:01.683Z,13.70
2019-05-11T05:05:31.061Z,13.70
2019-05-11T05:08:08.999Z,13.80
2019-05-11T05:10:31.583Z,13.80
2019-05-11T05:13:09.953Z,13.90
2019-05-11T05:15:31.947Z,13.90
2019-05-11T05:18:01.284Z,13.90
2019-05-11T05:20:30.591Z,14.00
2019-05-11T05:22:59.921Z,14.00
2019-05-11T05:25:29.227Z,14.00
2019-05-11T05:27:58.555Z,14.00
2019-05-11T05:30:27.873Z,14.20
2019-05-11T05:32:57.205Z,14.20
2019-05-11T05:35:26.520Z,14.20
2019-05-11T05:37:55.849Z,14.20
2019-05-11T05:40:25.161Z,14.20
2019-05-11T05:42:54.495Z,14.20
2019-05-11T05:45:23.880Z,14.30
2019-05-11T05:47:53.224Z,14.40
2019-05-11T05:50:22.531Z,14.40
2019-05-11T05:52:51.860Z,14.40
2019-05-11T05:55:21.168Z,14.30
2019-05-11T05:57:50.503Z,14.30
2019-05-11T06:00:20.056Z,14.30
2019-05-11T06:02:49.385Z,14.30
2019-05-11T06:05:18.696Z,14.30
2019-05-11T06:07:48.034Z,14.30
2019-05-11T06:10:17.485Z,14.30
2019-05-11T06:12:46.821Z,14.30
2019-05-11T06:15:16.437Z,14.20
2019-05-11T06:17:45.771Z,14.10
2019-05-11T06:20:15.919Z,14.10
2019-05-11T06:22:45.232Z,14.00
2019-05-11T06:25:14.908Z,14.00
2019-05-11T06:27:44.213Z,13.90
2019-05-11T06:30:13.541Z,13.90
2019-05-11T06:32:42.847Z,13.90
2019-05-11T06:35:12.496Z,13.90
2019-05-11T06:37:41.816Z,13.90
2019-05-11T06:40:11.741Z,14.00
2019-05-11T06:42:41.558Z,14.00
2019-05-11T06:45:11.314Z,14.10
2019-05-11T06:47:40.640Z,14.20
2019-05-11T06:50:10.379Z,14.30
2019-05-11T06:52:40.064Z,14.40
2019-05-11T06:55:09.566Z,14.40
2019-05-11T06:57:39.089Z,14.50
2019-05-11T07:00:08.949Z,14.60
2019-05-11T07:02:38.250Z,14.60
2019-05-11T07:05:08.054Z,14.70
2019-05-11T07:07:47.170Z,14.70
2019-05-11T07:10:08.849Z,14.80
2019-05-11T07:12:38.225Z,14.90
2019-05-11T07:15:08.963Z,14.90
2019-05-11T07:17:38.396Z,14.90
2019-05-11T07:20:08.739Z,15.00
2019-05-11T07:22:38.051Z,15.10
2019-05-11T07:25:08.290Z,15.20
2019-05-11T07:27:37.609Z,15.20
2019-05-11T07:30:08.611Z,15.20
2019-05-11T07:32:38.344Z,15.20
2019-05-11T07:35:08.567Z,15.10
2019-05-11T07:37:38.732Z,15.10
2019-05-11T07:40:08.678Z,15.10
2019-05-11T07:42:38.279Z,15.10
2019-05-11T07:45:09.241Z,15.20
2019-05-11T07:47:38.544Z,15.20
2019-05-11T07:50:09.845Z,15.30
2019-05-11T07:52:39.217Z,15.40
2019-05-11T07:55:08.955Z,15.50
2019-05-11T07:57:39.204Z,15.70
2019-05-11T08:00:09.321Z,15.80
2019-05-11T08:02:38.981Z,15.90
2019-05-11T08:05:08.956Z,16.00
2019-05-11T08:07:38.395Z,16.10
2019-05-11T08:10:08.579Z,16.20
2019-05-11T08:12:39.073Z,16.20
2019-05-11T08:15:13.322Z,16.30
2019-05-11T08:17:40.752Z,16.40
2019-05-11T08:20:10.784Z,16.40
2019-05-11T08:22:40.093Z,16.50
2019-05-11T08:25:09.669Z,16.50
2019-05-11T08:27:38.982Z,16.60
2019-05-11T08:30:13.202Z,16.70
2019-05-11T08:32:42.717Z,16.70
2019-05-11T08:35:12.482Z,16.90
2019-05-11T08:37:41.790Z,16.90
2019-05-11T08:40:11.525Z,16.90
2019-05-11T08:42:40.845Z,17.00
2019-05-11T08:45:20.158Z,17.00
2019-05-11T08:47:41.519Z,17.00
2019-05-11T08:50:14.902Z,16.90
2019-05-11T08:52:42.500Z,17.00
2019-05-11T08:55:12.338Z,17.10
2019-05-11T08:57:41.723Z,17.10
2019-05-11T09:00:17.905Z,17.20
2019-05-11T09:02:50.526Z,17.30
2019-05-11T09:05:18.684Z,17.20
2019-05-11T09:07:48.565Z,17.10
2019-05-11T09:10:18.697Z,16.90
2019-05-11T09:12:48.953Z,16.80
2019-05-11T09:15:32.502Z,16.80
2019-05-11T09:17:49.447Z,16.60
2019-05-11T09:20:18.945Z,16.60
2019-05-11T09:22:48.627Z,16.60
2019-05-11T09:25:18.448Z,16.40
2019-05-11T09:27:48.425Z,16.20
2019-05-11T09:30:18.553Z,16.10
2019-05-11T09:32:48.041Z,16.20
2019-05-11T09:35:18.927Z,16.30
2019-05-11T09:37:48.632Z,16.40
2019-05-11T09:40:18.422Z,16.60
2019-05-11T09:42:48.085Z,16.70
2019-05-11T09:45:18.720Z,16.70
2019-05-11T09:47:48.360Z,16.80
2019-05-11T09:50:18.151Z,17.00
2019-05-11T09:52:48.996Z,17.10
2019-05-11T09:55:19.181Z,17.20
2019-05-11T09:57:48.830Z,17.20
2019-05-11T10:00:18.598Z,17.20
2019-05-11T10:02:48.807Z,17.30
2019-05-11T10:05:18.984Z,17.40
2019-05-11T10:07:48.616Z,17.50
2019-05-11T10:10:18.811Z,17.60
2019-05-11T10:12:48.622Z,17.60
2019-05-11T10:15:19.701Z,17.60
2019-05-11T10:17:49.034Z,17.60
2019-05-11T10:20:18.427Z,17.80
2019-05-11T10:22:48.625Z,17.90
2019-05-11T10:25:18.502Z,18.00
2019-05-11T10:27:48.863Z,18.00
2019-05-11T10:30:18.874Z,18.00
2019-05-11T10:32:48.550Z,17.90
2019-05-11T10:35:18.549Z,18.00
2019-05-11T10:37:48.033Z,18.00
2019-05-11T10:40:18.996Z,18.00
2019-05-11T10:42:48.630Z,18.00
2019-05-11T10:45:18.238Z,18.10
2019-05-11T10:47:48.967Z,18.20
2019-05-11T10:50:18.910Z,18.30
2019-05-11T10:52:48.678Z,18.40
2019-05-11T10:55:19.443Z,18.40
2019-05-11T10:57:48.999Z,18.20
2019-05-11T11:00:19.015Z,18.20
2019-05-11T11:02:48.340Z,18.30
2019-05-11T11:05:18.788Z,18.20
2019-05-11T11:07:48.487Z,18.20
2019-05-11T11:10:18.388Z,18.20
2019-05-11T11:12:48.932Z,18.20
2019-05-11T11:15:19.708Z,18.30
2019-05-11T11:17:49.102Z,18.40
2019-05-11T11:20:18.864Z,18.30
2019-05-11T11:22:48.552Z,18.00
2019-05-11T11:25:18.199Z,18.00
2019-05-11T11:27:48.600Z,17.90
2019-05-11T11:30:18.606Z,17.90
2019-05-11T11:32:48.386Z,18.00
2019-05-11T11:35:18.731Z,18.00
2019-05-11T11:37:48.314Z,18.30
2019-05-11T11:40:17.996Z,18.50
2019-05-11T11:42:50.078Z,18.60
2019-05-11T11:45:19.897Z,18.60
2019-05-11T11:47:49.645Z,18.50
2019-05-11T11:50:19.051Z,18.70
2019-05-11T11:52:48.390Z,18.90
2019-05-11T11:55:18.629Z,18.80
2019-05-11T11:57:50.339Z,18.60
2019-05-11T12:00:20.185Z,18.40
2019-05-11T12:02:49.601Z,18.30
2019-05-11T12:05:18.985Z,18.20
2019-05-11T12:07:49.068Z,18.30
2019-05-11T12:10:19.018Z,18.30
2019-05-11T12:12:48.351Z,18.30
2019-05-11T12:15:17.974Z,18.30
2019-05-11T12:17:48.321Z,18.20
2019-05-11T12:20:18.223Z,18.20
2019-05-11T12:22:47.817Z,18.10
2019-05-11T12:25:18.582Z,18.10
2019-05-11T12:27:49.114Z,18.10
2019-05-11T12:30:18.668Z,18.10
2019-05-11T12:32:49.709Z,18.10
2019-05-11T12:35:19.644Z,18.20
2019-05-11T12:37:48.942Z,18.10
2019-05-11T12:40:18.415Z,18.20
2019-05-11T12:42:48.871Z,18.40
2019-05-11T12:45:18.589Z,18.70
2019-05-11T12:47:48.217Z,19.10
2019-05-11T12:50:18.632Z,19.30
2019-05-11T12:52:48.062Z,19.50
2019-05-11T12:55:18.054Z,19.40
2019-05-11T12:57:48.174Z,19.10
2019-05-11T13:00:18.059Z,19.10
2019-05-11T13:02:48.432Z,19.00
2019-05-11T13:05:18.206Z,19.20
2019-05-11T13:07:48.294Z,19.30
2019-05-11T13:10:18.293Z,19.40
2019-05-11T13:12:49.267Z,19.40
2019-05-11T13:15:18.853Z,19.30
2019-05-11T13:17:49.150Z,19.20
2019-05-11T13:20:18.823Z,19.10
2019-05-11T13:22:48.907Z,19.10
2019-05-11T13:25:18.516Z,19.00
2019-05-11T13:27:49.229Z,18.70
2019-05-11T13:30:19.190Z,18.60
2019-05-11T13:32:49.171Z,18.50
2019-05-11T13:35:19.028Z,18.10
2019-05-11T13:37:48.401Z,17.50
2019-05-11T13:40:18.399Z,17.10
2019-05-11T13:42:48.965Z,16.30
2019-05-11T13:45:18.699Z,14.60
2019-05-11T13:47:54.732Z,13.40
2019-05-11T13:50:19.281Z,12.90
2019-05-11T13:52:48.596Z,12.60
2019-05-11T13:55:18.419Z,12.60
2019-05-11T13:57:48.586Z,12.60
2019-05-11T14:00:18.250Z,12.60
2019-05-11T14:02:48.613Z,12.60
2019-05-11T14:05:18.351Z,12.70
2019-05-11T14:07:48.519Z,12.80
2019-05-11T14:10:18.394Z,13.10
2019-05-11T14:12:47.933Z,13.40
2019-05-11T14:15:18.794Z,13.90
2019-05-11T14:17:48.780Z,14.10
2019-05-11T14:20:19.835Z,14.10
2019-05-11T14:22:49.140Z,14.20
2019-05-11T14:25:18.939Z,14.20
2019-05-11T14:27:48.232Z,14.40
2019-05-11T14:30:19.138Z,14.60
2019-05-11T14:32:48.567Z,14.70
2019-05-11T14:35:18.884Z,14.50
2019-05-11T14:37:48.799Z,14.10
2019-05-11T14:40:18.257Z,13.80
2019-05-11T14:42:48.963Z,13.30
2019-05-11T14:45:18.918Z,12.50
2019-05-11T14:47:48.326Z,12.00
2019-05-11T14:50:18.817Z,11.80
2019-05-11T14:52:49.070Z,11.80
2019-05-11T14:55:18.683Z,11.60
2019-05-11T14:57:48.731Z,11.70
2019-05-11T15:00:19.011Z,11.70
2019-05-11T15:02:49.473Z,11.60
2019-05-11T15:05:21.061Z,11.80
2019-05-11T15:07:52.883Z,11.90
2019-05-11T15:10:21.792Z,12.30
2019-05-11T15:12:51.110Z,12.40
2019-05-11T15:15:20.578Z,12.50
2019-05-11T15:17:49.895Z,12.70
2019-05-11T15:20:19.719Z,12.50
2019-05-11T15:22:49.229Z,12.60
2019-05-11T15:25:20.182Z,12.70
2019-05-11T15:27:49.629Z,12.70
2019-05-11T15:30:21.251Z,12.60
2019-05-11T15:32:50.593Z,12.60
2019-05-11T15:35:19.896Z,12.70
2019-05-11T15:37:49.567Z,12.70
2019-05-11T15:40:20.761Z,12.60
2019-05-11T15:42:50.231Z,12.60
2019-05-11T15:45:21.396Z,12.60
2019-05-11T15:47:50.730Z,12.60
2019-05-11T15:50:20.568Z,12.50
2019-05-11T15:52:49.979Z,12.40
2019-05-11T15:55:20.730Z,12.40
2019-05-11T15:57:50.135Z,12.30
2019-05-11T16:00:19.776Z,12.50
2019-05-11T16:02:49.365Z,12.50
2019-05-11T16:05:19.008Z,12.50
2019-05-11T16:07:49.311Z,12.60
2019-05-11T16:10:19.071Z,12.50
2019-05-11T16:12:49.000Z,12.60
2019-05-11T16:15:19.671Z,12.60
2019-05-11T16:17:49.907Z,12.70
2019-05-11T16:20:19.528Z,12.70
2019-05-11T16:22:48.931Z,12.70
2019-05-11T16:25:20.052Z,12.70
2019-05-11T16:27:49.641Z,12.50
2019-05-11T16:30:21.531Z,12.60
2019-05-11T16:32:51.223Z,12.60
2019-05-11T16:35:20.679Z,12.60
2019-05-11T16:37:50.087Z,12.50
2019-05-11T16:40:20.919Z,12.30
2019-05-11T16:42:50.610Z,11.80
2019-05-11T16:45:23.528Z,11.50
2019-05-11T16:47:51.125Z,11.30
2019-05-11T16:50:20.507Z,11.10
2019-05-11T16:52:49.850Z,11.10
2019-05-11T16:55:19.171Z,11.10
2019-05-11T16:57:48.905Z,11.10
2019-05-11T17:00:18.467Z,10.90
2019-05-11T17:02:49.147Z,10.90
2019-05-11T17:05:26.599Z,11.10
2019-05-11T17:07:49.740Z,11.10
2019-05-11T17:10:19.275Z,11.00
2019-05-11T17:12:49.039Z,11.20
2019-05-11T17:15:19.076Z,11.40
2019-05-11T17:17:49.357Z,11.30
2019-05-11T17:20:19.308Z,11.30
2019-05-11T17:22:49.136Z,11.20
2019-05-11T17:25:19.478Z,11.10
2019-05-11T17:27:49.404Z,11.40
2019-05-11T17:30:19.806Z,11.40
2019-05-11T17:32:49.871Z,11.40
2019-05-11T17:35:19.422Z,11.60
2019-05-11T17:37:48.947Z,11.60
2019-05-11T17:40:22.731Z,11.60
2019-05-11T17:42:53.290Z,11.50
2019-05-11T17:45:20.690Z,11.30
2019-05-11T17:47:50.093Z,11.20
2019-05-11T17:50:19.554Z,11.10
2019-05-11T17:52:49.017Z,11.20
2019-05-11T17:55:18.745Z,11.00
2019-05-11T17:57:49.539Z,11.00
2019-05-11T18:00:21.074Z,11.00
2019-05-11T18:02:50.472Z,11.10
2019-05-11T18:05:19.787Z,10.90
2019-05-11T18:07:49.186Z,10.90
2019-05-11T18:10:18.740Z,11.00
2019-05-11T18:12:48.908Z,11.00
2019-05-11T18:15:19.012Z,10.80
2019-05-11T18:17:48.954Z,10.90
2019-05-11T18:20:21.859Z,10.80
2019-05-11T18:22:50.256Z,10.80
2019-05-11T18:25:19.569Z,10.70
2019-05-11T18:27:48.876Z,10.60
2019-05-11T18:30:18.424Z,10.50
2019-05-11T18:32:49.048Z,10.60
2019-05-11T18:35:19.459Z,10.60
2019-05-11T18:37:49.240Z,10.50
2019-05-11T18:40:19.063Z,10.50
2019-05-11T18:42:48.953Z,10.60
2019-05-11T18:45:19.041Z,10.60
2019-05-11T18:47:49.243Z,10.50
2019-05-11T18:50:29.953Z,10.50
2019-05-11T18:52:49.886Z,10.50
2019-05-11T18:55:19.381Z,10.60
2019-05-11T18:57:49.420Z,10.60
2019-05-11T19:00:19.504Z,10.40
2019-05-11T19:02:49.627Z,10.40
2019-05-11T19:05:19.492Z,10.20
2019-05-11T19:07:48.877Z,10.20
2019-05-11T19:10:18.290Z,10.20
2019-05-11T19:12:48.802Z,10.20
2019-05-11T19:15:19.424Z,10.30
2019-05-11T19:17:49.368Z,10.30
2019-05-11T19:20:19.115Z,10.10
2019-05-11T19:22:48.424Z,10.10
2019-05-11T19:25:18.353Z,10.10
2019-05-11T19:27:50.268Z,10.20
2019-05-11T19:30:19.315Z,10.30
2019-05-11T19:32:48.960Z,10.00
2019-05-11T19:35:21.185Z,10.20
2019-05-11T19:37:49.387Z,10.20
2019-05-11T19:40:18.711Z,10.20
2019-05-11T19:42:53.776Z,10.20
2019-05-11T19:45:23.750Z,10.30
2019-05-11T19:47:53.286Z,10.10
2019-05-11T19:50:22.696Z,10.20
2019-05-11T19:52:52.000Z,10.20
2019-05-11T19:55:21.334Z,10.00
2019-05-11T19:57:50.644Z,9.90
2019-05-11T20:00:21.022Z,9.90
2019-05-11T20:02:50.338Z,10.00
2019-05-11T20:05:19.666Z,10.00
2019-05-11T20:07:49.316Z,10.00
2019-05-11T20:10:19.131Z,9.70
2019-05-11T20:12:48.821Z,9.70
2019-05-11T20:15:19.048Z,9.90
2019-05-11T20:17:49.167Z,9.80
2019-05-11T20:20:18.958Z,9.90
2019-05-11T20:22:48.839Z,9.70
2019-05-11T20:25:19.145Z,9.80
2019-05-11T20:27:49.183Z,9.60
2019-05-11T20:30:19.357Z,9.70
2019-05-11T20:32:49.370Z,9.70
2019-05-11T20:35:18.919Z,9.60
2019-05-11T20:37:48.350Z,9.60
2019-05-11T20:40:18.406Z,9.60
2019-05-11T20:42:48.609Z,9.80
2019-05-11T20:45:18.762Z,9.80
2019-05-11T20:47:48.859Z,9.70
2019-05-11T20:50:18.783Z,9.70
2019-05-11T20:52:48.764Z,9.60
2019-05-11T20:55:18.557Z,9.70
2019-05-11T20:57:48.715Z,9.40
2019-05-11T21:00:19.041Z,9.40
2019-05-11T21:02:49.112Z,9.60
2019-05-11T21:05:18.809Z,9.50
2019-05-11T21:07:48.101Z,9.50
2019-05-11T21:10:17.762Z,9.50
2019-05-11T21:12:47.071Z,9.50
2019-05-11T21:15:16.816Z,9.30
2019-05-11T21:17:50.302Z,9.30
2019-05-11T21:20:18.204Z,9.40
2019-05-11T21:22:48.610Z,9.50
2019-05-11T21:25:18.373Z,9.40
2019-05-11T21:27:48.612Z,9.40
2019-05-11T21:30:18.671Z,9.40
2019-05-11T21:32:48.074Z,9.30
2019-05-11T21:35:19.142Z,9.30
2019-05-11T21:37:48.846Z,9.40
2019-05-11T21:40:18.277Z,9.30
2019-05-11T21:42:47.767Z,9.40
2019-05-11T21:45:18.465Z,9.20
2019-05-11T21:47:48.996Z,9.40
2019-05-11T21:50:20.043Z,9.30
2019-05-11T21:52:49.370Z,9.30
2019-05-11T21:55:18.669Z,9.50
2019-05-11T21:57:49.823Z,9.40
2019-05-11T22:00:20.632Z,9.40
2019-05-11T22:02:49.965Z,9.30
2019-05-11T22:05:20.968Z,9.30
2019-05-11T22:07:50.440Z,9.40
2019-05-11T22:10:20.388Z,9.30
2019-05-11T22:12:49.729Z,9.30
2019-05-11T22:15:19.094Z,9.30
2019-05-11T22:17:48.422Z,9.20
2019-05-11T22:20:18.348Z,9.30
2019-05-11T22:22:47.898Z,9.10
2019-05-11T22:25:18.253Z,9.20
2019-05-11T22:27:48.750Z,9.10
2019-05-11T22:30:18.743Z,9.10
2019-05-11T22:32:48.208Z,9.00
2019-05-11T22:35:18.285Z,9.00
2019-05-11T22:37:48.940Z,9.00
2019-05-11T22:40:19.006Z,9.30
2019-05-11T22:42:48.331Z,9.50
2019-05-11T22:45:18.621Z,9.30
2019-05-11T22:47:48.281Z,9.10
2019-05-11T22:50:18.811Z,9.10
2019-05-11T22:52:48.695Z,9.00
2019-05-11T22:55:18.999Z,9.10
2019-05-11T22:57:48.707Z,9.10
2019-05-11T23:00:39.754Z,9.00
2019-05-11T23:03:11.044Z,9.30
2019-05-11T23:05:41.515Z,9.30
2019-05-11T23:08:10.913Z,9.30
2019-05-11T23:10:40.222Z,9.10
2019-05-11T23:13:11.348Z,9.00
2019-05-11T23:15:40.950Z,9.00
2019-05-11T23:18:10.276Z,9.00
2019-05-11T23:20:39.660Z,9.00
2019-05-11T23:23:09.260Z,9.10
2019-05-11T23:25:38.566Z,9.10
2019-05-11T23:28:07.902Z,8.90
2019-05-11T23:30:38.903Z,9.10
2019-05-11T23:33:08.402Z,8.90
2019-05-11T23:35:38.422Z,8.90
2019-05-11T23:38:07.822Z,8.90
2019-05-11T23:40:37.952Z,8.90
2019-05-11T23:43:08.636Z,8.90
2019-05-11T23:45:38.818Z,8.90
2019-05-11T23:48:08.227Z,8.80
2019-05-11T23:50:38.653Z,8.80
2019-05-11T23:53:10.129Z,8.90
2019-05-11T23:55:39.251Z,8.90
2019-05-11T23:58:08.573Z,8.80
